Flight Track Log - Related Links

Times and Time Zones

All times are in EDT time to prevent confusion due to time zone crossing. See the FIN666 flight status page for this flight to view local times or setup timezone preferences in your user account.

Time Position Orientation Groundspeed Altitude Reporting Facility
EDT Latitude Longitude Course Direction KTS MPH feet Rate Location/Type
Sat 07:31:00 AM 55.8486 13.1329 49° Northeast  Level Estimated
Sat 07:32:00 AM 55.9251 13.2931 50° Northeast  Level Estimated
Sat 07:33:00 AM 56.0014 13.4539 50° Northeast  Level Estimated
Sat 07:34:00 AM 56.0774 13.6154 50° Northeast  Level Estimated
Sat 07:35:00 AM 56.1533 13.7775 50° Northeast  Level Estimated
Sat 07:36:00 AM 56.2289 13.9403 50° Northeast  Level Estimated
Sat 07:37:00 AM 56.3044 14.1037 50° Northeast  Level Estimated
Sat 07:38:00 AM 56.3796 14.2678 50° Northeast  Level Estimated
Sat 07:39:00 AM 56.4546 14.4325 50° Northeast  Level Estimated
Sat 07:40:00 AM 56.5293 14.5978 51° Northeast  Level Estimated
Sat 07:41:00 AM 56.6050 14.7663 51° Northeast  Level Estimated
Sat 07:42:00 AM 56.6804 14.9355 51° Northeast  Level Estimated
Sat 07:43:00 AM 56.7556 15.1053 51° Northeast  Level Estimated
Sat 07:44:00 AM 56.8306 15.2759 51° Northeast  Level Estimated
Sat 07:45:00 AM 56.9053 15.4471 51° Northeast  Level Estimated
Sat 07:46:00 AM 56.9799 15.6190 51° Northeast  Level Estimated
Sat 07:47:00 AM 57.0541 15.7915 52° Northeast  Level Estimated
Sat 07:48:00 AM 57.1293 15.9675 52° Northeast  Level Estimated
Sat 07:49:00 AM 57.2042 16.1441 52° Northeast  Level Estimated
Sat 07:50:00 AM 57.2788 16.3214 52° Northeast  Level Estimated
Sat 07:51:00 AM 57.3532 16.4995 52° Northeast  Level Estimated
Sat 07:52:00 AM 57.4274 16.6782 52° Northeast  Level Estimated
Sat 07:53:00 AM 57.5013 16.8577 52° Northeast  Level Estimated
Sat 07:54:00 AM 57.5749 17.0380 53° Northeast  Level Estimated
Sat 07:55:00 AM 57.6483 17.2189 53° Northeast  Level Estimated
Sat 07:56:00 AM 57.7214 17.4006 53° Northeast  Level Estimated
Sat 07:57:00 AM 57.7943 17.5830 53° Northeast  Level Estimated
Sat 07:58:00 AM 57.8669 17.7662 53° Northeast  Level Estimated
Sat 07:59:00 AM 57.9392 17.9501 53° Northeast  Level Estimated
Sat 08:00:00 AM 58.0113 18.1347 54° Northeast  Level Estimated
Sat 08:01:00 AM 58.0831 18.3201 54° Northeast  Level Estimated
Sat 08:02:00 AM 58.1546 18.5062 54° Northeast  Level Estimated
Sat 08:03:00 AM 58.2259 18.6931 54° Northeast  Level Estimated
Sat 08:04:00 AM 58.2969 18.8808 54° Northeast  Level Estimated
Sat 08:05:00 AM 58.3676 19.0691 54° Northeast  Level Estimated
Sat 08:06:00 AM 58.4380 19.2583 55° Northeast  Level Estimated
Sat 08:07:00 AM 58.5081 19.4482 55° Northeast  Level Estimated
Sat 08:08:00 AM 58.5780 19.6388 55° Northeast  Level Estimated
Sat 08:09:00 AM 58.6476 19.8302 55° Northeast  Level Estimated
Sat 08:10:00 AM 58.7169 20.0224 55° Northeast  Level Estimated
Sat 08:11:00 AM 58.7859 20.2153 55° Northeast  Level Estimated
Sat 08:12:00 AM 58.8546 20.4090 55° Northeast  Level Estimated
Sat 08:13:00 AM 58.9231 20.6035 56° Northeast  Level Estimated
Sat 08:14:00 AM 58.9912 20.7988 56° Northeast  Level Estimated
Sat 08:15:00 AM 59.0591 20.9948 56° Northeast  Level Estimated
Sat 08:16:00 AM 59.1266 21.1916 56° Northeast  Level Estimated
Sat 08:17:00 AM 59.1939 21.3892 56° Northeast  Level Estimated
Sat 08:18:00 AM 59.2608 21.5875 57° Northeast  Level Estimated
Sat 08:19:00 AM 59.3275 21.7866 57° Northeast  Level Estimated
Sat 08:20:00 AM 59.3938 21.9865 57° Northeast  Level Estimated
Sat 08:21:00 AM 59.4599 22.1872 57° Northeast  Level Estimated
Sat 08:22:00 AM 59.5256 22.3887 57° Northeast  Level Estimated
Sat 08:23:00 AM 59.5910 22.5910 57° Northeast  Level Estimated
Sat 08:24:00 AM 59.6561 22.7940 58° Northeast  Level Estimated
Sat 08:25:00 AM 59.7209 22.9979 58° Northeast  Level Estimated
Sat 08:26:00 AM 59.7854 23.2025 58° Northeast  Level Estimated
Sat 08:27:00 AM 59.8495 23.4079 58° Northeast  Level Estimated
Sat 08:28:00 AM 59.9133 23.6141 58° Northeast  Level Estimated
Sat 08:29:00 AM 59.9768 23.8211 58° Northeast  Level Estimated
Sat 08:30:00 AM 60.0400 24.0289 59° Northeast  Level Estimated
Sat 08:31:00 AM 60.1029 24.2375 59° Northeast  Level Estimated
Sat 08:32:00 AM 60.1654 24.4468 59° Northeast  Level Estimated
Sat 08:33:00 AM 60.2276 24.6570 59° Northeast  Level Estimated
Sat 08:34:00 AM 60.2895 24.8680 59° Northeast  Level Estimated
Sat 08:35:00 AM 60.3172 24.9633 60° Northeast  Level Estimated
Sat 08:36:00 AM 60.3172 24.9633 37° Northeast  Level Estimated
Sat 08:37:00 AM 60.3172 24.9633 37° Northeast  Level Estimated
Sat 08:38:00 AM 60.3172 24.9633 37° Northeast  Level Estimated
Sat 08:39:00 AM 60.3172 24.9633 37° Northeast  Level Estimated
Sat 08:40:00 AM 60.3172 24.9633 37° Northeast  Level Estimated
Sat 08:41:00 AM 60.3172 24.9633 37° Northeast  Level Estimated
Sat 08:42:00 AM 60.3172 24.9633 37° Northeast  Level Estimated
Sat 08:43:00 AM 60.3172 24.9633 37° Northeast  Level Estimated
Sat 08:44:00 AM 60.3172 24.9633 37° Northeast  Level Estimated
Sat 08:45:00 AM 60.3172 24.9633 37° Northeast  Level Estimated
Sat 08:46:00 AM 60.3172 24.9633 37° Northeast  Level Estimated

Login

Don't have an account? Register now (free) for customized features, flight alerts, and more!